KIGM Airport (Kingman) Information

FAA: IGM - ICAO: KIGM

KIGM Airport Location

State Arizona
County Mohave
City Kingman
KIGM Airport is 8 miles northeast of Kingman, AZ.
Latitude 35-15-34.1210N
Longitude 113-56-16.9810W
Elevation 3,448ft

KIGM Airport METARs

METAR KIGM 072051Z AUTO 22013KT 10SM FEW065 11/M02 A3011 RMK AO2 SLP163 T01111017 56006
Altimeter 30.11"
Temperature 11.1°C (52.0°F)
Wind 220° at 13KT
Clouds few at 6,500ft
Visibility 10.0mi
Time observed: 2022-12-07T20:51:00Z

KIGM Airport Details

Status Operational
Activation September 1943
Ownership Public
Usage Public
Chart PHOENIX
ATC on-site No
Beacon schedule sunset-sunrise
Beacon color clear green

KIGM Airport Contacts

Owner CITY OF KINGMAN
Owner address 7000 FLIGHTLINE DR, KINGMAN, AZ 86401
Owner phone 928-757-2134
Manager ANNA FLORES
Manager address 912-C, TILBURY DRIVE P.O. BOX 639, KEARNY, AZ 85137
Manager phone 520-363-5547

KIGM Airport (Kingman) Radio Frequencies

KIGM (Airport) Radio Frequencies

UNICOM 122.8
Common traffic advisory frequency (CTAF) 122.8